sensor_id;sensor_type;location;lat;lon;timestamp;temperature;humidity
10046;DHT22;5063;50.878;4.742;2023-03-23T00:00:52;13.50;99.90
10046;DHT22;5063;50.878;4.742;2023-03-23T00:03:22;13.50;99.90
10046;DHT22;5063;50.878;4.742;2023-03-23T00:05:55;13.50;99.90
10046;DHT22;5063;50.878;4.742;2023-03-23T00:08:26;13.60;99.90
10046;DHT22;5063;50.878;4.742;2023-03-23T00:10:52;13.60;99.90
10046;DHT22;5063;50.878;4.742;2023-03-23T00:13:25;13.60;99.90
10046;DHT22;5063;50.878;4.742;2023-03-23T00:15:51;13.60;99.90
10046;DHT22;5063;50.878;4.742;2023-03-23T00:18:18;13.60;99.90
10046;DHT22;5063;50.878;4.742;2023-03-23T00:20:55;13.60;99.90
10046;DHT22;5063;50.878;4.742;2023-03-23T00:23:24;13.60;99.90
10046;DHT22;5063;50.878;4.742;2023-03-23T00:25:55;13.60;99.90
10046;DHT22;5063;50.878;4.742;2023-03-23T00:28:25;13.60;99.90
10046;DHT22;5063;50.878;4.742;2023-03-23T00:33:37;13.60;99.90
10046;DHT22;5063;50.878;4.742;2023-03-23T00:36:33;13.60;99.90
10046;DHT22;5063;50.878;4.742;2023-03-23T00:39:04;13.60;99.90
10046;DHT22;5063;50.878;4.742;2023-03-23T00:41:32;13.70;99.90
10046;DHT22;5063;50.878;4.742;2023-03-23T00:44:02;13.60;99.90
10046;DHT22;5063;50.878;4.742;2023-03-23T00:46:28;13.60;99.90
10046;DHT22;5063;50.878;4.742;2023-03-23T00:48:57;13.60;99.90
10046;DHT22;5063;50.878;4.742;2023-03-23T00:51:24;13.60;99.90
10046;DHT22;5063;50.878;4.742;2023-03-23T00:53:50;13.60;99.90
10046;DHT22;5063;50.878;4.742;2023-03-23T00:56:16;13.60;99.90
10046;DHT22;5063;50.878;4.742;2023-03-23T00:58:42;13.60;99.90
10046;DHT22;5063;50.878;4.742;2023-03-23T01:01:11;13.60;99.90
10046;DHT22;5063;50.878;4.742;2023-03-23T01:03:37;13.60;99.90
10046;DHT22;5063;50.878;4.742;2023-03-23T01:06:10;13.60;99.90
10046;DHT22;5063;50.878;4.742;2023-03-23T01:08:40;13.70;99.90
10046;DHT22;5063;50.878;4.742;2023-03-23T01:11:16;13.70;99.90
10046;DHT22;5063;50.878;4.742;2023-03-23T01:13:42;13.70;99.90
10046;DHT22;5063;50.878;4.742;2023-03-23T01:16:09;13.70;99.90
10046;DHT22;5063;50.878;4.742;2023-03-23T01:18:36;13.70;99.90
10046;DHT22;5063;50.878;4.742;2023-03-23T01:21:13;13.70;99.90
10046;DHT22;5063;50.878;4.742;2023-03-23T01:23:40;13.70;99.90
10046;DHT22;5063;50.878;4.742;2023-03-23T01:26:10;13.70;99.90
10046;DHT22;5063;50.878;4.742;2023-03-23T01:28:37;13.80;99.90
10046;DHT22;5063;50.878;4.742;2023-03-23T01:31:04;13.90;99.90
10046;DHT22;5063;50.878;4.742;2023-03-23T01:33:30;14.00;99.90
10046;DHT22;5063;50.878;4.742;2023-03-23T01:36:06;14.10;99.90
10046;DHT22;5063;50.878;4.742;2023-03-23T01:38:33;14.00;99.90
10046;DHT22;5063;50.878;4.742;2023-03-23T01:41:00;14.10;99.90
10046;DHT22;5063;50.878;4.742;2023-03-23T01:43:26;14.00;99.90
10046;DHT22;5063;50.878;4.742;2023-03-23T01:45:52;14.00;99.90
10046;DHT22;5063;50.878;4.742;2023-03-23T01:48:23;13.90;99.90
10046;DHT22;5063;50.878;4.742;2023-03-23T01:51:01;13.90;99.90
10046;DHT22;5063;50.878;4.742;2023-03-23T01:53:58;13.90;99.90
10046;DHT22;5063;50.878;4.742;2023-03-23T01:56:29;13.90;99.90
10046;DHT22;5063;50.878;4.742;2023-03-23T01:58:58;13.70;99.90
10046;DHT22;5063;50.878;4.742;2023-03-23T02:01:25;13.60;99.90
10046;DHT22;5063;50.878;4.742;2023-03-23T02:03:54;13.50;99.90
10046;DHT22;5063;50.878;4.742;2023-03-23T02:06:21;13.50;99.90
10046;DHT22;5063;50.878;4.742;2023-03-23T02:08:48;13.40;99.90
10046;DHT22;5063;50.878;4.742;2023-03-23T02:11:20;13.50;99.90
10046;DHT22;5063;50.878;4.742;2023-03-23T02:13:50;13.40;99.90
10046;DHT22;5063;50.878;4.742;2023-03-23T02:27:55;13.70;99.90
10046;DHT22;5063;50.878;4.742;2023-03-23T02:33:21;13.80;99.90
10046;DHT22;5063;50.878;4.742;2023-03-23T02:35:58;13.80;99.90
10046;DHT22;5063;50.878;4.742;2023-03-23T02:38:49;13.80;99.90
10046;DHT22;5063;50.878;4.742;2023-03-23T02:41:19;13.60;99.90
10046;DHT22;5063;50.878;4.742;2023-03-23T02:43:47;13.70;99.90
10046;DHT22;5063;50.878;4.742;2023-03-23T02:46:14;13.70;99.90
10046;DHT22;5063;50.878;4.742;2023-03-23T02:48:42;13.60;99.90
10046;DHT22;5063;50.878;4.742;2023-03-23T02:51:08;13.60;99.90
10046;DHT22;5063;50.878;4.742;2023-03-23T02:53:38;13.70;99.90
10046;DHT22;5063;50.878;4.742;2023-03-23T02:56:06;13.80;99.90
10046;DHT22;5063;50.878;4.742;2023-03-23T02:58:33;13.80;99.90
10046;DHT22;5063;50.878;4.742;2023-03-23T03:00:59;13.80;99.90
10046;DHT22;5063;50.878;4.742;2023-03-23T03:03:30;13.90;99.90
10046;DHT22;5063;50.878;4.742;2023-03-23T03:06:24;13.90;99.90
10046;DHT22;5063;50.878;4.742;2023-03-23T03:09:12;13.90;99.90
10046;DHT22;5063;50.878;4.742;2023-03-23T03:11:45;13.80;99.90
10046;DHT22;5063;50.878;4.742;2023-03-23T03:14:37;13.70;99.90
10046;DHT22;5063;50.878;4.742;2023-03-23T03:17:21;13.70;99.90
10046;DHT22;5063;50.878;4.742;2023-03-23T03:19:52;13.70;99.90
10046;DHT22;5063;50.878;4.742;2023-03-23T03:22:20;13.70;99.90
10046;DHT22;5063;50.878;4.742;2023-03-23T03:24:47;13.70;99.90
10046;DHT22;5063;50.878;4.742;2023-03-23T03:27:16;13.60;99.90
10046;DHT22;5063;50.878;4.742;2023-03-23T03:29:47;13.60;99.90
10046;DHT22;5063;50.878;4.742;2023-03-23T03:32:20;13.50;99.90
10046;DHT22;5063;50.878;4.742;2023-03-23T03:34:50;13.40;99.90
10046;DHT22;5063;50.878;4.742;2023-03-23T03:37:17;13.30;99.90
10046;DHT22;5063;50.878;4.742;2023-03-23T03:39:44;13.30;99.90
10046;DHT22;5063;50.878;4.742;2023-03-23T03:42:10;13.30;99.90
10046;DHT22;5063;50.878;4.742;2023-03-23T03:44:35;13.30;99.90
10046;DHT22;5063;50.878;4.742;2023-03-23T03:47:02;13.30;99.90
10046;DHT22;5063;50.878;4.742;2023-03-23T03:49:29;13.30;99.90
10046;DHT22;5063;50.878;4.742;2023-03-23T03:51:55;13.30;99.90
10046;DHT22;5063;50.878;4.742;2023-03-23T03:54:21;13.30;99.90
10046;DHT22;5063;50.878;4.742;2023-03-23T03:56:48;13.30;99.90
10046;DHT22;5063;50.878;4.742;2023-03-23T03:59:14;13.40;99.90
10046;DHT22;5063;50.878;4.742;2023-03-23T04:01:39;13.30;99.90
10046;DHT22;5063;50.878;4.742;2023-03-23T04:04:08;13.30;99.90
10046;DHT22;5063;50.878;4.742;2023-03-23T04:06:34;13.20;99.90
10046;DHT22;5063;50.878;4.742;2023-03-23T04:09:03;13.20;99.90
10046;DHT22;5063;50.878;4.742;2023-03-23T04:11:32;13.20;99.90
10046;DHT22;5063;50.878;4.742;2023-03-23T04:13:58;13.20;99.90
10046;DHT22;5063;50.878;4.742;2023-03-23T04:16:23;13.10;99.90
10046;DHT22;5063;50.878;4.742;2023-03-23T04:18:51;13.10;99.90
10046;DHT22;5063;50.878;4.742;2023-03-23T04:21:17;13.00;99.90
10046;DHT22;5063;50.878;4.742;2023-03-23T04:23:43;13.00;99.90
10046;DHT22;5063;50.878;4.742;2023-03-23T04:26:08;13.10;99.90
10046;DHT22;5063;50.878;4.742;2023-03-23T04:28:39;13.00;99.90
10046;DHT22;5063;50.878;4.742;2023-03-23T04:31:04;13.00;99.90
10046;DHT22;5063;50.878;4.742;2023-03-23T04:33:30;13.10;99.90
10046;DHT22;5063;50.878;4.742;2023-03-23T04:35:59;13.00;99.90
10046;DHT22;5063;50.878;4.742;2023-03-23T04:38:27;13.00;99.90
10046;DHT22;5063;50.878;4.742;2023-03-23T04:40:53;13.00;99.90
10046;DHT22;5063;50.878;4.742;2023-03-23T04:43:22;13.00;99.90
10046;DHT22;5063;50.878;4.742;2023-03-23T04:45:53;13.00;99.90
10046;DHT22;5063;50.878;4.742;2023-03-23T04:48:27;13.00;99.90
10046;DHT22;5063;50.878;4.742;2023-03-23T04:50:54;13.00;99.90
10046;DHT22;5063;50.878;4.742;2023-03-23T04:53:20;13.00;99.90
10046;DHT22;5063;50.878;4.742;2023-03-23T04:55:47;13.10;99.90
10046;DHT22;5063;50.878;4.742;2023-03-23T04:58:16;13.20;99.90
10046;DHT22;5063;50.878;4.742;2023-03-23T05:00:43;13.20;99.90
10046;DHT22;5063;50.878;4.742;2023-03-23T05:03:10;13.20;99.90
10046;DHT22;5063;50.878;4.742;2023-03-23T05:05:36;13.30;99.90
10046;DHT22;5063;50.878;4.742;2023-03-23T05:08:03;13.40;99.90
10046;DHT22;5063;50.878;4.742;2023-03-23T05:10:29;13.40;99.90
10046;DHT22;5063;50.878;4.742;2023-03-23T05:12:54;13.50;99.90
10046;DHT22;5063;50.878;4.742;2023-03-23T05:15:20;13.30;99.90
10046;DHT22;5063;50.878;4.742;2023-03-23T05:17:46;13.30;99.90
10046;DHT22;5063;50.878;4.742;2023-03-23T05:20:15;13.50;99.90
10046;DHT22;5063;50.878;4.742;2023-03-23T05:22:44;13.40;99.90
10046;DHT22;5063;50.878;4.742;2023-03-23T05:25:10;13.20;99.90
10046;DHT22;5063;50.878;4.742;2023-03-23T05:27:37;13.10;99.90
10046;DHT22;5063;50.878;4.742;2023-03-23T05:30:04;13.00;99.90
10046;DHT22;5063;50.878;4.742;2023-03-23T05:32:31;12.90;99.90
10046;DHT22;5063;50.878;4.742;2023-03-23T05:34:58;12.90;99.90
10046;DHT22;5063;50.878;4.742;2023-03-23T05:37:25;12.90;99.90
10046;DHT22;5063;50.878;4.742;2023-03-23T05:39:52;13.00;99.90
10046;DHT22;5063;50.878;4.742;2023-03-23T05:42:20;13.20;99.90
10046;DHT22;5063;50.878;4.742;2023-03-23T05:44:46;13.30;99.90
10046;DHT22;5063;50.878;4.742;2023-03-23T05:47:14;13.20;99.90
10046;DHT22;5063;50.878;4.742;2023-03-23T05:49:40;13.10;99.90
10046;DHT22;5063;50.878;4.742;2023-03-23T05:52:06;13.00;99.90
10046;DHT22;5063;50.878;4.742;2023-03-23T05:54:32;12.90;99.90
10046;DHT22;5063;50.878;4.742;2023-03-23T05:56:59;12.90;99.90
10046;DHT22;5063;50.878;4.742;2023-03-23T05:59:25;12.80;99.90
10046;DHT22;5063;50.878;4.742;2023-03-23T06:01:52;12.70;99.90
10046;DHT22;5063;50.878;4.742;2023-03-23T06:04:21;12.70;99.90
10046;DHT22;5063;50.878;4.742;2023-03-23T06:06:51;12.70;99.90
10046;DHT22;5063;50.878;4.742;2023-03-23T06:09:25;12.80;99.90
10046;DHT22;5063;50.878;4.742;2023-03-23T06:11:51;12.70;99.90
10046;DHT22;5063;50.878;4.742;2023-03-23T06:14:17;12.70;99.90
10046;DHT22;5063;50.878;4.742;2023-03-23T06:16:43;12.80;99.90
10046;DHT22;5063;50.878;4.742;2023-03-23T06:19:09;12.80;99.90
10046;DHT22;5063;50.878;4.742;2023-03-23T06:21:37;12.80;99.90
10046;DHT22;5063;50.878;4.742;2023-03-23T06:24:02;12.80;99.90
10046;DHT22;5063;50.878;4.742;2023-03-23T06:26:39;12.80;99.90
10046;DHT22;5063;50.878;4.742;2023-03-23T06:29:07;12.80;99.90
10046;DHT22;5063;50.878;4.742;2023-03-23T06:31:48;12.80;99.90
10046;DHT22;5063;50.878;4.742;2023-03-23T06:34:15;12.80;99.90
10046;DHT22;5063;50.878;4.742;2023-03-23T06:36:42;12.80;99.90
10046;DHT22;5063;50.878;4.742;2023-03-23T06:39:10;12.80;99.90
10046;DHT22;5063;50.878;4.742;2023-03-23T06:41:36;12.90;99.90
10046;DHT22;5063;50.878;4.742;2023-03-23T06:44:02;12.90;99.90
10046;DHT22;5063;50.878;4.742;2023-03-23T06:46:28;12.90;99.90
10046;DHT22;5063;50.878;4.742;2023-03-23T06:48:55;13.00;99.90
10046;DHT22;5063;50.878;4.742;2023-03-23T06:51:21;13.00;99.90
10046;DHT22;5063;50.878;4.742;2023-03-23T06:53:47;13.10;99.90
10046;DHT22;5063;50.878;4.742;2023-03-23T06:56:13;13.20;99.90
10046;DHT22;5063;50.878;4.742;2023-03-23T06:58:39;13.20;99.90
10046;DHT22;5063;50.878;4.742;2023-03-23T07:01:08;13.20;99.90
10046;DHT22;5063;50.878;4.742;2023-03-23T07:03:35;13.30;99.90
10046;DHT22;5063;50.878;4.742;2023-03-23T07:06:01;13.20;99.90
10046;DHT22;5063;50.878;4.742;2023-03-23T07:08:27;13.30;99.90
10046;DHT22;5063;50.878;4.742;2023-03-23T07:10:57;13.20;99.90
10046;DHT22;5063;50.878;4.742;2023-03-23T07:13:23;13.20;99.90
10046;DHT22;5063;50.878;4.742;2023-03-23T07:15:49;13.20;99.90
10046;DHT22;5063;50.878;4.742;2023-03-23T07:18:16;13.20;99.90
10046;DHT22;5063;50.878;4.742;2023-03-23T07:20:42;13.20;99.90
10046;DHT22;5063;50.878;4.742;2023-03-23T07:23:08;13.10;99.90
10046;DHT22;5063;50.878;4.742;2023-03-23T07:25:34;13.00;99.90
10046;DHT22;5063;50.878;4.742;2023-03-23T07:28:02;12.80;99.90
10046;DHT22;5063;50.878;4.742;2023-03-23T07:30:28;12.80;99.90
10046;DHT22;5063;50.878;4.742;2023-03-23T07:32:56;12.70;99.90
10046;DHT22;5063;50.878;4.742;2023-03-23T07:35:22;12.60;99.90
10046;DHT22;5063;50.878;4.742;2023-03-23T07:37:48;12.60;99.90
10046;DHT22;5063;50.878;4.742;2023-03-23T07:40:15;12.50;99.90
10046;DHT22;5063;50.878;4.742;2023-03-23T07:42:43;12.40;99.90
10046;DHT22;5063;50.878;4.742;2023-03-23T07:45:10;12.30;99.90
10046;DHT22;5063;50.878;4.742;2023-03-23T07:47:37;12.10;99.90
10046;DHT22;5063;50.878;4.742;2023-03-23T07:50:04;11.70;99.90
10046;DHT22;5063;50.878;4.742;2023-03-23T07:52:30;11.40;99.90
10046;DHT22;5063;50.878;4.742;2023-03-23T07:54:56;11.30;99.90
10046;DHT22;5063;50.878;4.742;2023-03-23T07:57:22;11.30;99.90
10046;DHT22;5063;50.878;4.742;2023-03-23T07:59:48;11.10;99.90
10046;DHT22;5063;50.878;4.742;2023-03-23T08:02:14;11.00;99.90
10046;DHT22;5063;50.878;4.742;2023-03-23T08:04:40;10.90;99.90
10046;DHT22;5063;50.878;4.742;2023-03-23T08:07:08;10.90;99.90
10046;DHT22;5063;50.878;4.742;2023-03-23T08:09:34;10.80;99.90
10046;DHT22;5063;50.878;4.742;2023-03-23T08:11:59;10.80;99.90
10046;DHT22;5063;50.878;4.742;2023-03-23T08:14:25;10.90;99.90
10046;DHT22;5063;50.878;4.742;2023-03-23T08:16:53;10.90;99.90
10046;DHT22;5063;50.878;4.742;2023-03-23T08:19:21;11.00;99.90
10046;DHT22;5063;50.878;4.742;2023-03-23T08:21:48;11.10;99.90
10046;DHT22;5063;50.878;4.742;2023-03-23T08:24:15;11.20;99.90
10046;DHT22;5063;50.878;4.742;2023-03-23T08:26:41;11.30;99.90
10046;DHT22;5063;50.878;4.742;2023-03-23T08:29:07;11.40;99.90
10046;DHT22;5063;50.878;4.742;2023-03-23T08:31:34;11.50;99.90
10046;DHT22;5063;50.878;4.742;2023-03-23T08:34:02;11.60;99.90
10046;DHT22;5063;50.878;4.742;2023-03-23T08:36:31;11.60;99.90
10046;DHT22;5063;50.878;4.742;2023-03-23T08:38:57;11.80;99.90
10046;DHT22;5063;50.878;4.742;2023-03-23T08:41:23;12.10;99.90
10046;DHT22;5063;50.878;4.742;2023-03-23T08:43:49;12.40;99.90
10046;DHT22;5063;50.878;4.742;2023-03-23T08:46:16;12.70;99.90
10046;DHT22;5063;50.878;4.742;2023-03-23T08:48:43;12.70;99.90
10046;DHT22;5063;50.878;4.742;2023-03-23T08:51:11;12.40;99.90
10046;DHT22;5063;50.878;4.742;2023-03-23T08:53:38;12.20;99.90
10046;DHT22;5063;50.878;4.742;2023-03-23T08:56:06;12.20;99.90
10046;DHT22;5063;50.878;4.742;2023-03-23T08:58:34;12.10;99.90
10046;DHT22;5063;50.878;4.742;2023-03-23T09:01:01;12.10;99.90
10046;DHT22;5063;50.878;4.742;2023-03-23T09:03:27;12.00;99.90
10046;DHT22;5063;50.878;4.742;2023-03-23T09:05:53;12.00;99.90
10046;DHT22;5063;50.878;4.742;2023-03-23T09:08:19;12.10;99.90
10046;DHT22;5063;50.878;4.742;2023-03-23T09:10:45;12.20;99.90
10046;DHT22;5063;50.878;4.742;2023-03-23T09:13:14;12.10;99.90
10046;DHT22;5063;50.878;4.742;2023-03-23T09:15:40;12.10;99.90
10046;DHT22;5063;50.878;4.742;2023-03-23T09:18:06;12.10;99.90
10046;DHT22;5063;50.878;4.742;2023-03-23T09:20:32;12.20;99.90
10046;DHT22;5063;50.878;4.742;2023-03-23T09:22:58;12.30;99.90
10046;DHT22;5063;50.878;4.742;2023-03-23T09:25:26;12.30;99.90
10046;DHT22;5063;50.878;4.742;2023-03-23T09:27:56;12.30;99.90
10046;DHT22;5063;50.878;4.742;2023-03-23T09:30:25;12.20;99.90
10046;DHT22;5063;50.878;4.742;2023-03-23T09:32:52;12.20;99.90
10046;DHT22;5063;50.878;4.742;2023-03-23T09:35:18;12.20;99.90
10046;DHT22;5063;50.878;4.742;2023-03-23T09:37:48;12.30;99.90
10046;DHT22;5063;50.878;4.742;2023-03-23T09:54:18;13.20;99.90
10046;DHT22;5063;50.878;4.742;2023-03-23T09:56:46;13.50;99.90
10046;DHT22;5063;50.878;4.742;2023-03-23T09:59:52;13.70;99.90
10046;DHT22;5063;50.878;4.742;2023-03-23T10:02:28;13.80;99.90
10046;DHT22;5063;50.878;4.742;2023-03-23T10:05:34;13.60;99.90
10046;DHT22;5063;50.878;4.742;2023-03-23T10:08:02;13.40;99.90
10046;DHT22;5063;50.878;4.742;2023-03-23T10:10:45;13.70;99.90
10046;DHT22;5063;50.878;4.742;2023-03-23T10:16:23;14.20;99.90
10046;DHT22;5063;50.878;4.742;2023-03-23T10:19:17;14.60;99.90
10046;DHT22;5063;50.878;4.742;2023-03-23T10:21:51;15.00;99.90
10046;DHT22;5063;50.878;4.742;2023-03-23T10:24:23;14.90;99.90
10046;DHT22;5063;50.878;4.742;2023-03-23T10:27:11;14.80;99.90
10046;DHT22;5063;50.878;4.742;2023-03-23T10:30:02;15.00;99.90
10046;DHT22;5063;50.878;4.742;2023-03-23T10:32:41;15.40;99.90
10046;DHT22;5063;50.878;4.742;2023-03-23T10:35:22;15.50;99.90
10046;DHT22;5063;50.878;4.742;2023-03-23T10:37:56;15.60;99.90
10046;DHT22;5063;50.878;4.742;2023-03-23T10:40:29;15.70;99.90
10046;DHT22;5063;50.878;4.742;2023-03-23T10:42:59;15.80;99.90
10046;DHT22;5063;50.878;4.742;2023-03-23T10:45:30;15.80;99.90
10046;DHT22;5063;50.878;4.742;2023-03-23T10:50:49;15.50;99.90
10046;DHT22;5063;50.878;4.742;2023-03-23T10:53:32;15.50;99.90
10046;DHT22;5063;50.878;4.742;2023-03-23T10:56:00;15.70;99.90
10046;DHT22;5063;50.878;4.742;2023-03-23T11:00:55;16.30;99.90
10046;DHT22;5063;50.878;4.742;2023-03-23T11:06:07;16.50;99.90
10046;DHT22;5063;50.878;4.742;2023-03-23T11:11:38;16.90;99.90
10046;DHT22;5063;50.878;4.742;2023-03-23T11:14:16;17.10;99.90
10046;DHT22;5063;50.878;4.742;2023-03-23T11:17:20;16.60;99.90
10046;DHT22;5063;50.878;4.742;2023-03-23T11:19:46;16.80;99.90
10046;DHT22;5063;50.878;4.742;2023-03-23T11:22:32;16.50;99.90
10046;DHT22;5063;50.878;4.742;2023-03-23T11:25:04;16.10;99.90
10046;DHT22;5063;50.878;4.742;2023-03-23T11:27:31;15.90;99.90
10046;DHT22;5063;50.878;4.742;2023-03-23T11:30:10;15.80;99.90
10046;DHT22;5063;50.878;4.742;2023-03-23T11:32:43;15.60;99.90
10046;DHT22;5063;50.878;4.742;2023-03-23T11:35:30;15.90;99.90
10046;DHT22;5063;50.878;4.742;2023-03-23T11:37:57;16.00;99.90
10046;DHT22;5063;50.878;4.742;2023-03-23T11:40:26;15.80;99.90
10046;DHT22;5063;50.878;4.742;2023-03-23T11:48:03;16.30;99.90
10046;DHT22;5063;50.878;4.742;2023-03-23T11:51:01;16.40;99.90
10046;DHT22;5063;50.878;4.742;2023-03-23T11:53:52;16.60;99.90
10046;DHT22;5063;50.878;4.742;2023-03-23T11:56:40;16.70;99.90
10046;DHT22;5063;50.878;4.742;2023-03-23T11:59:25;17.00;99.90
10046;DHT22;5063;50.878;4.742;2023-03-23T12:07:49;16.80;99.90
10046;DHT22;5063;50.878;4.742;2023-03-23T12:10:27;16.90;99.90
10046;DHT22;5063;50.878;4.742;2023-03-23T12:15:45;16.80;99.90
10046;DHT22;5063;50.878;4.742;2023-03-23T12:21:27;16.90;99.90
10046;DHT22;5063;50.878;4.742;2023-03-23T12:24:06;17.20;99.90
10046;DHT22;5063;50.878;4.742;2023-03-23T12:46:45;16.50;99.90
10046;DHT22;5063;50.878;4.742;2023-03-23T12:58:17;17.80;99.90
10046;DHT22;5063;50.878;4.742;2023-03-23T13:03:31;17.50;99.90
10046;DHT22;5063;50.878;4.742;2023-03-23T13:08:40;16.90;99.90
10046;DHT22;5063;50.878;4.742;2023-03-23T13:11:31;16.90;99.90
10046;DHT22;5063;50.878;4.742;2023-03-23T13:14:27;16.20;99.90
10046;DHT22;5063;50.878;4.742;2023-03-23T13:25:13;16.10;99.90
10046;DHT22;5063;50.878;4.742;2023-03-23T13:27:42;16.30;99.90
10046;DHT22;5063;50.878;4.742;2023-03-23T13:30:20;16.40;99.90
10046;DHT22;5063;50.878;4.742;2023-03-23T13:32:50;16.50;99.90
10046;DHT22;5063;50.878;4.742;2023-03-23T13:35:18;16.70;99.90
10046;DHT22;5063;50.878;4.742;2023-03-23T13:37:51;16.60;99.90
10046;DHT22;5063;50.878;4.742;2023-03-23T13:40:28;16.80;99.90
10046;DHT22;5063;50.878;4.742;2023-03-23T13:42:57;16.90;99.90
10046;DHT22;5063;50.878;4.742;2023-03-23T13:50:59;17.20;99.90
10046;DHT22;5063;50.878;4.742;2023-03-23T13:59:30;16.60;99.90
10046;DHT22;5063;50.878;4.742;2023-03-23T14:02:30;16.60;99.90
10046;DHT22;5063;50.878;4.742;2023-03-23T14:04:56;16.70;99.90
10046;DHT22;5063;50.878;4.742;2023-03-23T14:07:23;16.80;99.90
10046;DHT22;5063;50.878;4.742;2023-03-23T14:09:50;16.80;99.90
10046;DHT22;5063;50.878;4.742;2023-03-23T14:12:22;16.90;99.90
10046;DHT22;5063;50.878;4.742;2023-03-23T14:14:54;16.80;99.90
10046;DHT22;5063;50.878;4.742;2023-03-23T14:17:25;16.60;99.90
10046;DHT22;5063;50.878;4.742;2023-03-23T14:19:53;16.50;99.90
10046;DHT22;5063;50.878;4.742;2023-03-23T14:22:33;16.50;99.90
10046;DHT22;5063;50.878;4.742;2023-03-23T14:25:16;16.60;99.90
10046;DHT22;5063;50.878;4.742;2023-03-23T14:27:43;16.90;99.90
10046;DHT22;5063;50.878;4.742;2023-03-23T14:30:22;17.00;99.90
10046;DHT22;5063;50.878;4.742;2023-03-23T14:32:49;17.20;99.90
10046;DHT22;5063;50.878;4.742;2023-03-23T14:35:33;17.20;99.90
10046;DHT22;5063;50.878;4.742;2023-03-23T14:37:59;17.00;99.90
10046;DHT22;5063;50.878;4.742;2023-03-23T14:40:29;16.80;99.90
10046;DHT22;5063;50.878;4.742;2023-03-23T14:42:56;16.60;99.90
10046;DHT22;5063;50.878;4.742;2023-03-23T14:45:24;16.60;99.90
10046;DHT22;5063;50.878;4.742;2023-03-23T14:47:58;16.50;99.90
10046;DHT22;5063;50.878;4.742;2023-03-23T14:50:36;16.40;99.90
10046;DHT22;5063;50.878;4.742;2023-03-23T14:55:45;16.40;99.90
10046;DHT22;5063;50.878;4.742;2023-03-23T14:58:14;16.40;99.90
10046;DHT22;5063;50.878;4.742;2023-03-23T15:03:25;16.10;99.90
10046;DHT22;5063;50.878;4.742;2023-03-23T15:05:55;15.80;99.90
10046;DHT22;5063;50.878;4.742;2023-03-23T15:08:32;15.30;99.90
10046;DHT22;5063;50.878;4.742;2023-03-23T15:13:49;15.40;99.90
10046;DHT22;5063;50.878;4.742;2023-03-23T15:16:25;15.70;99.90
10046;DHT22;5063;50.878;4.742;2023-03-23T15:19:06;16.10;99.90
10046;DHT22;5063;50.878;4.742;2023-03-23T15:21:49;16.40;99.90
10046;DHT22;5063;50.878;4.742;2023-03-23T15:24:40;16.30;99.90
10046;DHT22;5063;50.878;4.742;2023-03-23T15:29:32;16.10;99.90
10046;DHT22;5063;50.878;4.742;2023-03-23T15:31:59;15.90;99.90
10046;DHT22;5063;50.878;4.742;2023-03-23T15:34:32;15.90;99.90
10046;DHT22;5063;50.878;4.742;2023-03-23T15:37:02;16.00;99.90
10046;DHT22;5063;50.878;4.742;2023-03-23T15:39:29;16.20;99.90
10046;DHT22;5063;50.878;4.742;2023-03-23T15:41:56;16.30;99.90
10046;DHT22;5063;50.878;4.742;2023-03-23T15:44:27;16.20;99.90
10046;DHT22;5063;50.878;4.742;2023-03-23T15:47:04;16.20;99.90
10046;DHT22;5063;50.878;4.742;2023-03-23T15:49:36;16.20;99.90
10046;DHT22;5063;50.878;4.742;2023-03-23T15:52:02;16.30;99.90
10046;DHT22;5063;50.878;4.742;2023-03-23T15:54:31;16.40;99.90
10046;DHT22;5063;50.878;4.742;2023-03-23T15:56:57;16.50;99.90
10046;DHT22;5063;50.878;4.742;2023-03-23T15:59:23;16.60;99.90
10046;DHT22;5063;50.878;4.742;2023-03-23T16:01:49;16.60;99.90
10046;DHT22;5063;50.878;4.742;2023-03-23T16:04:17;16.60;99.90
10046;DHT22;5063;50.878;4.742;2023-03-23T16:06:44;16.70;99.90
10046;DHT22;5063;50.878;4.742;2023-03-23T16:09:18;16.70;99.90
10046;DHT22;5063;50.878;4.742;2023-03-23T16:11:44;16.40;99.90
10046;DHT22;5063;50.878;4.742;2023-03-23T16:14:10;16.10;99.90
10046;DHT22;5063;50.878;4.742;2023-03-23T16:16:45;15.80;99.90
10046;DHT22;5063;50.878;4.742;2023-03-23T16:19:15;15.70;99.90
10046;DHT22;5063;50.878;4.742;2023-03-23T16:21:41;15.70;99.90
10046;DHT22;5063;50.878;4.742;2023-03-23T16:24:08;15.80;99.90
10046;DHT22;5063;50.878;4.742;2023-03-23T16:26:35;15.90;99.90
10046;DHT22;5063;50.878;4.742;2023-03-23T16:29:01;16.10;99.90
10046;DHT22;5063;50.878;4.742;2023-03-23T16:31:28;16.00;99.90
10046;DHT22;5063;50.878;4.742;2023-03-23T16:33:54;16.00;99.90
10046;DHT22;5063;50.878;4.742;2023-03-23T16:36:20;16.00;99.90
10046;DHT22;5063;50.878;4.742;2023-03-23T16:38:46;15.90;99.90
10046;DHT22;5063;50.878;4.742;2023-03-23T16:41:11;15.90;99.90
10046;DHT22;5063;50.878;4.742;2023-03-23T16:43:37;15.90;99.90
10046;DHT22;5063;50.878;4.742;2023-03-23T16:46:03;16.00;99.90
10046;DHT22;5063;50.878;4.742;2023-03-23T16:48:29;16.00;99.90
10046;DHT22;5063;50.878;4.742;2023-03-23T16:50:55;15.90;99.90
10046;DHT22;5063;50.878;4.742;2023-03-23T16:53:21;16.10;99.90
10046;DHT22;5063;50.878;4.742;2023-03-23T16:55:47;16.40;99.90
10046;DHT22;5063;50.878;4.742;2023-03-23T16:58:15;16.50;99.90
10046;DHT22;5063;50.878;4.742;2023-03-23T17:00:42;16.40;99.90
10046;DHT22;5063;50.878;4.742;2023-03-23T17:03:08;16.30;99.90
10046;DHT22;5063;50.878;4.742;2023-03-23T17:05:36;16.20;99.90
10046;DHT22;5063;50.878;4.742;2023-03-23T17:08:02;16.00;99.90
10046;DHT22;5063;50.878;4.742;2023-03-23T17:10:28;15.70;99.90
10046;DHT22;5063;50.878;4.742;2023-03-23T17:12:55;15.60;99.90
10046;DHT22;5063;50.878;4.742;2023-03-23T17:15:21;15.40;99.90
10046;DHT22;5063;50.878;4.742;2023-03-23T17:17:49;15.30;99.90
10046;DHT22;5063;50.878;4.742;2023-03-23T17:20:15;15.30;99.90
10046;DHT22;5063;50.878;4.742;2023-03-23T17:22:41;15.20;99.90
10046;DHT22;5063;50.878;4.742;2023-03-23T17:25:08;15.20;99.90
10046;DHT22;5063;50.878;4.742;2023-03-23T17:27:34;15.20;99.90
10046;DHT22;5063;50.878;4.742;2023-03-23T17:30:01;15.10;99.90
10046;DHT22;5063;50.878;4.742;2023-03-23T17:32:27;15.10;99.90
10046;DHT22;5063;50.878;4.742;2023-03-23T17:34:53;15.10;99.90
10046;DHT22;5063;50.878;4.742;2023-03-23T17:37:19;15.00;99.90
10046;DHT22;5063;50.878;4.742;2023-03-23T17:39:46;15.00;99.90
10046;DHT22;5063;50.878;4.742;2023-03-23T17:42:12;15.00;99.90
10046;DHT22;5063;50.878;4.742;2023-03-23T17:44:38;14.90;99.90
10046;DHT22;5063;50.878;4.742;2023-03-23T17:47:04;14.90;99.90
10046;DHT22;5063;50.878;4.742;2023-03-23T17:49:30;14.80;99.90
10046;DHT22;5063;50.878;4.742;2023-03-23T17:51:59;14.80;99.90
10046;DHT22;5063;50.878;4.742;2023-03-23T17:54:25;14.80;99.90
10046;DHT22;5063;50.878;4.742;2023-03-23T17:56:53;14.80;99.90
10046;DHT22;5063;50.878;4.742;2023-03-23T17:59:19;14.80;99.90
10046;DHT22;5063;50.878;4.742;2023-03-23T18:01:47;14.70;99.90
10046;DHT22;5063;50.878;4.742;2023-03-23T18:04:14;14.70;99.90
10046;DHT22;5063;50.878;4.742;2023-03-23T18:06:40;14.70;99.90
10046;DHT22;5063;50.878;4.742;2023-03-23T18:09:06;14.70;99.90